»·PEaware :: N114LW KMYF-L04

N114LW :: KMYF-L04

FLIGHT INFORMATION

Flight Status: Arrived
Operator: Privately registered:
United States
More flights under this callsign
Pilot: Lee W. (44)
Aircraft: MOONEY M-20 201 202 205 220 ATS MSE
(M20P)
More flights by this aircraft type
Origin: KMYF Montgomery
United States
Destination: L04 Holtville
United States
More flights between these airports :: More routes between these airports
Route: IPL
File this flight plan on PilotEdge
Remarks:
Altitude:
(Current/Filed)
9,500ft
Speed:
(Current/Filed)
140kts
Departed: 21-Jan-14 03:22 PM
Arrived: 21-Jan-14 04:09 PM
Distance/Time
Traveled:
94nm/0:46
Distance/Time
To Go:
Arrived

Flight Plot

Page will automatically refresh every two minutes.


Map Options




Map Legend


Flown Route
Filed Route
Departure Airport
Arrival Airport
Navaid (VOR, NDB)
Fix

Horizontal Profiles

Position Reports

Time Latitude Longitude Heading Altitude Ground
Speed
21-Jan-14 15:04 32.814039 -117.141351 292 430ft 0kts
21-Jan-14 15:05 32.814039 -117.141351 292 430ft 0kts
21-Jan-14 15:06 32.814039 -117.141351 292 430ft 0kts
21-Jan-14 15:07 32.814039 -117.141351 292 430ft 0kts
21-Jan-14 15:08 32.814039 -117.141351 292 430ft 0kts
21-Jan-14 15:09 32.814039 -117.141351 292 430ft 0kts
21-Jan-14 15:10 32.814039 -117.141351 292 430ft 0kts
21-Jan-14 15:11 32.814039 -117.141351 292 430ft 0kts
21-Jan-14 15:12 32.814039 -117.141351 292 430ft 0kts
21-Jan-14 15:13 32.814039 -117.141351 292 430ft 0kts
21-Jan-14 15:14 32.814039 -117.141351 292 430ft 0kts
21-Jan-14 15:15 32.814423 -117.141180 69 430ft 6kts
21-Jan-14 15:16 32.812863 -117.136883 117 429ft 15kts
21-Jan-14 15:17 32.812622 -117.135595 20 430ft 0kts
21-Jan-14 15:18 32.812714 -117.135548 24 430ft 4kts
21-Jan-14 15:19 32.819093 -117.156133 267 754ft 97kts
21-Jan-14 15:20 32.798399 -117.159951 122 1298ft 128kts
21-Jan-14 15:21 32.794636 -117.117035 91 2057ft 131kts
21-Jan-14 15:22 32.792700 -117.075171 91 2942ft 123kts
21-Jan-14 15:23 32.790747 -117.033565 91 3500ft 143kts
21-Jan-14 15:24 32.788654 -116.982159 91 3489ft 158kts
21-Jan-14 15:25 32.791583 -116.930576 82 3490ft 157kts
21-Jan-14 15:26 32.795954 -116.879350 83 3528ft 156kts
21-Jan-14 15:27 32.800571 -116.828392 83 3781ft 150kts
21-Jan-14 15:28 32.804680 -116.780369 83 4549ft 142kts
21-Jan-14 15:29 32.808342 -116.734783 83 5229ft 136kts
21-Jan-14 15:30 32.811649 -116.691055 83 6058ft 130kts
21-Jan-14 15:31 32.811984 -116.649014 103 6710ft 128kts
21-Jan-14 15:32 32.802589 -116.608644 104 7373ft 126kts
21-Jan-14 15:33 32.792591 -116.569661 104 8141ft 121kts
21-Jan-14 15:34 32.775713 -116.532791 118 8661ft 132kts
21-Jan-14 15:35 32.756090 -116.494775 118 9162ft 137kts
21-Jan-14 15:36 32.735862 -116.455508 119 9491ft 151kts
21-Jan-14 15:37 32.732995 -116.405164 83 9501ft 162kts
21-Jan-14 15:38 32.734074 -116.351461 85 9502ft 159kts
21-Jan-14 15:39 32.734923 -116.314314 85 9511ft 156kts
21-Jan-14 15:40 32.734923 -116.314314 85 9511ft 156kts
21-Jan-14 15:41 32.734923 -116.314314 85 9511ft 156kts
21-Jan-14 15:42 32.735651 -116.275048 87 9516ft 156kts
21-Jan-14 15:43 32.736676 -116.223587 88 9528ft 156kts
21-Jan-14 15:44 32.737712 -116.172236 87 9536ft 155kts
21-Jan-14 15:45 32.738774 -116.120839 88 9540ft 155kts
21-Jan-14 15:46 32.739712 -116.069523 88 9540ft 155kts
21-Jan-14 15:47 32.740849 -116.010022 87 9540ft 154kts
21-Jan-14 15:48 32.741618 -115.967532 87 9540ft 153kts
21-Jan-14 15:49 32.742444 -115.917168 86 9506ft 155kts
21-Jan-14 15:50 32.741171 -115.864061 93 8631ft 167kts
21-Jan-14 15:51 32.734115 -115.811357 119 7755ft 169kts
21-Jan-14 15:52 32.726929 -115.758033 83 6841ft 167kts
21-Jan-14 15:53 32.731807 -115.701721 84 5938ft 173kts
21-Jan-14 15:54 32.736654 -115.647292 83 5514ft 149kts
21-Jan-14 15:55 32.741046 -115.598302 83 4975ft 152kts
21-Jan-14 15:56 32.745503 -115.547976 83 4380ft 154kts
21-Jan-14 15:57 32.749992 -115.497686 79 3784ft 154kts
21-Jan-14 15:58 32.766143 -115.450992 65 3187ft 152kts
21-Jan-14 15:59 32.782618 -115.404883 65 2591ft 152kts
21-Jan-14 16:00 32.798871 -115.359294 65 2067ft 140kts
21-Jan-14 16:01 32.814533 -115.315081 65 1025ft 154kts
21-Jan-14 16:02 32.818522 -115.274823 96 950ft 103kts
21-Jan-14 16:03 32.815592 -115.245963 76 913ft 78kts
21-Jan-14 16:04 32.835256 -115.235922 359 629ft 78kts
21-Jan-14 16:05 32.840011 -115.260437 275 94ft 85kts
21-Jan-14 16:06 32.840395 -115.276701 187 62ft 12kts

Navigation Log

Ident Type
Flight plan parsing failed, navigation log unavailable